Time;durP1;ratioP1;P1;durP2;ratioP2;P2;SDS_P1;SDS_P2;PMS_P1;PMS_P2;Temp;Humidity;BMP_temperature;BMP_pressure;BME280_temperature;BME280_humidity;BME280_pressure;Samples;Min_cycle;Max_cycle;Signal;HPM_P1;HPM_P2
2022/06/06 00:02:14;;;;;;;;;;;18.50;99.90;;;;;;4317172;33;43035;-78
2022/06/06 00:04:41;;;;;;;;;;;18.40;99.90;;;;;;4318629;33;43688;-78
2022/06/06 00:07:08;;;;;;;;;;;18.40;99.90;;;;;;4318081;33;45451;-78
2022/06/06 00:09:35;;;;;;;;;;;18.40;99.90;;;;;;4318482;33;42354;-79
2022/06/06 00:12:03;;;;;;;;;;;18.40;99.90;;;;;;4305549;33;45975;-80
2022/06/06 00:14:31;;;;;;;;;;;18.40;99.90;;;;;;4318653;33;44232;-79
2022/06/06 00:16:58;;;;;;;;;;;18.40;99.90;;;;;;4305414;33;43177;-77
2022/06/06 00:19:25;;;;;;;;;;;18.30;99.90;;;;;;4305073;33;43345;-78
2022/06/06 00:21:52;;;;;;;;;;;18.30;99.90;;;;;;4318131;33;42434;-78
2022/06/06 00:24:19;;;;;;;;;;;18.30;99.90;;;;;;4317996;33;41851;-77
2022/06/06 00:26:46;;;;;;;;;;;18.30;99.90;;;;;;4317937;33;45218;-78
2022/06/06 00:29:15;;;;;;;;;;;18.30;99.90;;;;;;4318233;33;43446;-79
2022/06/06 00:37:15;;;;;;;;;;;18.30;99.90;;;;;;4317914;33;42935;-77
2022/06/06 00:39:43;;;;;;;;;;;18.30;99.90;;;;;;4305050;33;43009;-78
2022/06/06 00:42:17;;;;;;;;;;;18.30;99.90;;;;;;4316655;33;45069;-77
2022/06/06 00:44:44;;;;;;;;;;;18.30;99.90;;;;;;4318481;33;43423;-78
2022/06/06 00:47:21;;;;;;;;;;;18.30;99.90;;;;;;4317850;33;43894;-79
2022/06/06 00:49:56;;;;;;;;;;;18.20;99.90;;;;;;4304645;33;43661;-78
2022/06/06 00:52:25;;;;;;;;;;;18.20;99.90;;;;;;4305098;33;43810;-80
2022/06/06 00:54:54;;;;;;;;;;;18.20;99.90;;;;;;4305006;33;45834;-79
2022/06/06 00:57:25;;;;;;;;;;;18.20;99.90;;;;;;4304764;33;45033;-78
2022/06/06 00:59:52;;;;;;;;;;;18.20;99.90;;;;;;4317404;33;44741;-78
2022/06/06 01:02:20;;;;;;;;;;;18.20;99.90;;;;;;4317326;33;43844;-80
2022/06/06 01:04:47;;;;;;;;;;;18.10;99.90;;;;;;4318045;33;43650;-77
2022/06/06 01:07:15;;;;;;;;;;;18.10;99.90;;;;;;4317429;33;43205;-77
2022/06/06 01:09:42;;;;;;;;;;;18.10;99.90;;;;;;4304317;33;44710;-76
2022/06/06 01:12:12;;;;;;;;;;;18.10;99.90;;;;;;4317634;33;43152;-77
2022/06/06 01:14:42;;;;;;;;;;;18.10;99.90;;;;;;4318250;33;20108;-79
2022/06/06 01:17:32;;;;;;;;;;;18.10;99.90;;;;;;4317243;33;44469;-78
2022/06/06 01:20:03;;;;;;;;;;;18.00;99.90;;;;;;4290779;33;44224;-77
2022/06/06 01:22:36;;;;;;;;;;;18.00;99.90;;;;;;4304212;33;42725;-78
2022/06/06 01:25:13;;;;;;;;;;;18.00;99.90;;;;;;4304683;33;42608;-80
2022/06/06 01:27:40;;;;;;;;;;;18.00;99.90;;;;;;4317358;33;44903;-77
2022/06/06 01:30:13;;;;;;;;;;;18.00;99.90;;;;;;4304338;33;42169;-79
2022/06/06 01:32:42;;;;;;;;;;;18.00;99.90;;;;;;4317522;33;44364;-77
2022/06/06 01:35:10;;;;;;;;;;;18.00;99.90;;;;;;4316979;33;43814;-78
2022/06/06 01:37:41;;;;;;;;;;;18.00;99.90;;;;;;4317203;33;43664;-79
2022/06/06 01:40:13;;;;;;;;;;;18.00;99.90;;;;;;4304517;33;43517;-77
2022/06/06 01:42:47;;;;;;;;;;;18.00;99.90;;;;;;4317579;33;45167;-78
2022/06/06 01:45:27;;;;;;;;;;;18.00;99.90;;;;;;4318281;33;20382;-77
2022/06/06 01:48:00;;;;;;;;;;;17.90;99.90;;;;;;4304320;33;45563;-79
2022/06/06 01:50:28;;;;;;;;;;;17.90;99.90;;;;;;4304472;33;43479;-77
2022/06/06 01:52:57;;;;;;;;;;;17.90;99.90;;;;;;4303685;33;44193;-76
2022/06/06 01:55:26;;;;;;;;;;;17.90;99.90;;;;;;4304095;33;42874;-78
2022/06/06 01:57:54;;;;;;;;;;;17.90;99.90;;;;;;4317156;33;44351;-77
2022/06/06 02:00:21;;;;;;;;;;;17.90;99.90;;;;;;4303600;33;44190;-78
2022/06/06 02:02:48;;;;;;;;;;;17.90;99.90;;;;;;4316893;33;43595;-78
2022/06/06 02:05:16;;;;;;;;;;;17.90;99.90;;;;;;4316915;33;43601;-77
2022/06/06 02:07:43;;;;;;;;;;;17.90;99.90;;;;;;4303500;33;44263;-77
2022/06/06 02:10:11;;;;;;;;;;;17.90;99.90;;;;;;4316798;33;43112;-78
2022/06/06 02:12:39;;;;;;;;;;;17.90;99.90;;;;;;4315821;33;42577;-76
2022/06/06 02:15:07;;;;;;;;;;;17.80;99.90;;;;;;4304020;33;43838;-77
2022/06/06 02:17:34;;;;;;;;;;;17.90;99.90;;;;;;4315396;33;43595;-77
2022/06/06 02:20:04;;;;;;;;;;;17.80;99.90;;;;;;4316809;33;43971;-79
2022/06/06 02:22:31;;;;;;;;;;;17.80;99.90;;;;;;4315744;33;42660;-76
2022/06/06 02:24:58;;;;;;;;;;;17.80;99.90;;;;;;4303698;33;42662;-78
2022/06/06 02:27:26;;;;;;;;;;;17.80;99.90;;;;;;4316491;33;44188;-78
2022/06/06 02:29:53;;;;;;;;;;;17.80;99.90;;;;;;4316273;33;44833;-79
2022/06/06 02:32:21;;;;;;;;;;;17.80;99.90;;;;;;4316505;33;42309;-78
2022/06/06 02:34:48;;;;;;;;;;;17.80;99.90;;;;;;4303316;33;44157;-78
2022/06/06 02:37:15;;;;;;;;;;;17.70;99.90;;;;;;4315546;33;43010;-78
2022/06/06 02:39:43;;;;;;;;;;;17.70;99.90;;;;;;4316183;33;41994;-78
2022/06/06 02:42:10;;;;;;;;;;;17.70;99.90;;;;;;4316593;33;44258;-77
2022/06/06 02:44:37;;;;;;;;;;;17.70;99.90;;;;;;4303493;33;43894;-77
2022/06/06 02:47:05;;;;;;;;;;;17.70;99.90;;;;;;4316547;33;43082;-78
2022/06/06 02:49:35;;;;;;;;;;;17.70;99.90;;;;;;4316417;33;42735;-78
2022/06/06 02:52:03;;;;;;;;;;;17.70;99.90;;;;;;4316072;33;43356;-77
2022/06/06 02:54:30;;;;;;;;;;;17.70;99.90;;;;;;4316021;33;43403;-78
2022/06/06 02:57:03;;;;;;;;;;;17.70;99.90;;;;;;4302919;33;43319;-78
2022/06/06 02:59:31;;;;;;;;;;;17.70;99.90;;;;;;4316297;33;43747;-78
2022/06/06 03:01:58;;;;;;;;;;;17.60;99.90;;;;;;4315872;33;43676;-78
2022/06/06 03:04:25;;;;;;;;;;;17.60;99.90;;;;;;4316291;33;45141;-77
2022/06/06 03:06:56;;;;;;;;;;;17.60;99.90;;;;;;4302621;33;43914;-78
2022/06/06 03:09:38;;;;;;;;;;;17.60;99.90;;;;;;4304337;33;20041;-79
2022/06/06 03:12:06;;;;;;;;;;;17.60;99.90;;;;;;4316490;33;43958;-79
2022/06/06 03:14:43;;;;;;;;;;;17.60;99.90;;;;;;4303233;33;44192;-77
2022/06/06 03:23:11;;;;;;;;;;;17.50;99.90;;;;;;4315958;33;43859;-77
2022/06/06 03:25:42;;;;;;;;;;;17.50;99.90;;;;;;4315882;33;44661;-79
2022/06/06 03:28:38;;;;;;;;;;;17.50;99.90;;;;;;4315734;33;43482;-79
2022/06/06 03:31:24;;;;;;;;;;;17.50;99.90;;;;;;4296284;33;44139;-77
2022/06/06 03:34:10;;;;;;;;;;;17.40;99.90;;;;;;4315566;33;44070;-78
2022/06/06 03:36:37;;;;;;;;;;;17.40;99.90;;;;;;4314620;33;42698;-78
2022/06/06 03:39:04;;;;;;;;;;;17.40;99.90;;;;;;4302809;33;44954;-79
2022/06/06 03:41:31;;;;;;;;;;;17.40;99.90;;;;;;4303019;33;43838;-79
2022/06/06 03:44:09;;;;;;;;;;;17.40;99.90;;;;;;4315489;33;43512;-78
2022/06/06 03:46:45;;;;;;;;;;;17.40;99.90;;;;;;4316069;33;44179;-78
2022/06/06 03:49:22;;;;;;;;;;;17.40;99.90;;;;;;4315787;33;43292;-77
2022/06/06 03:52:00;;;;;;;;;;;17.30;99.90;;;;;;4302815;33;44212;-79
2022/06/06 03:54:33;;;;;;;;;;;17.30;99.90;;;;;;4302847;33;43954;-78
2022/06/06 03:57:12;;;;;;;;;;;17.30;99.90;;;;;;4315283;33;45705;-78
2022/06/06 03:59:40;;;;;;;;;;;17.30;99.90;;;;;;4315570;33;43724;-78
2022/06/06 04:02:09;;;;;;;;;;;17.30;99.90;;;;;;4302420;33;44537;-77
2022/06/06 04:04:36;;;;;;;;;;;17.30;99.90;;;;;;4314842;33;44245;-79
2022/06/06 04:07:03;;;;;;;;;;;17.30;99.90;;;;;;4314528;33;42622;-81
2022/06/06 04:09:34;;;;;;;;;;;17.30;99.90;;;;;;4302309;33;44104;-77
2022/06/06 04:12:20;;;;;;;;;;;17.20;99.90;;;;;;4315590;33;43234;-77
2022/06/06 04:15:10;;;;;;;;;;;17.20;99.90;;;;;;4315783;33;43921;-77
2022/06/06 04:17:49;;;;;;;;;;;17.20;99.90;;;;;;4298829;33;43482;-78
2022/06/06 04:20:20;;;;;;;;;;;17.20;99.90;;;;;;4303141;33;20408;-81
2022/06/06 04:22:50;;;;;;;;;;;17.20;99.90;;;;;;4302072;33;46087;-78
2022/06/06 04:25:23;;;;;;;;;;;17.20;99.90;;;;;;4315725;33;43730;-78
2022/06/06 04:28:09;;;;;;;;;;;17.10;99.90;;;;;;4302241;33;42366;-78
2022/06/06 04:30:42;;;;;;;;;;;17.10;99.90;;;;;;4314987;33;43262;-77
2022/06/06 04:33:27;;;;;;;;;;;17.10;99.90;;;;;;4302292;33;43677;-79
2022/06/06 04:36:02;;;;;;;;;;;17.10;99.90;;;;;;4317249;33;42923;-79
2022/06/06 04:38:29;;;;;;;;;;;17.10;99.90;;;;;;4305347;33;43409;-79
2022/06/06 04:41:01;;;;;;;;;;;17.00;99.90;;;;;;4305011;33;46027;-79
2022/06/06 04:43:33;;;;;;;;;;;17.10;99.90;;;;;;4318372;33;45798;-78
2022/06/06 04:46:09;;;;;;;;;;;17.00;99.90;;;;;;4305053;33;44626;-78
2022/06/06 04:48:37;;;;;;;;;;;17.00;99.90;;;;;;4305245;33;43180;-78
2022/06/06 04:51:04;;;;;;;;;;;17.00;99.90;;;;;;4304627;33;43494;-79
2022/06/06 04:53:32;;;;;;;;;;;17.00;99.90;;;;;;4316726;33;43951;-79
2022/06/06 04:56:00;;;;;;;;;;;16.90;99.90;;;;;;4317661;33;44264;-78
2022/06/06 04:58:28;;;;;;;;;;;16.90;99.90;;;;;;4316738;33;43082;-79
2022/06/06 05:00:55;;;;;;;;;;;16.90;99.90;;;;;;4304427;33;43286;-77
2022/06/06 05:03:23;;;;;;;;;;;16.90;99.90;;;;;;4316696;33;43177;-79
2022/06/06 05:05:56;;;;;;;;;;;16.90;99.90;;;;;;4317856;33;43405;-79
2022/06/06 05:08:38;;;;;;;;;;;16.90;99.90;;;;;;4317468;33;43519;-79
2022/06/06 05:11:17;;;;;;;;;;;16.90;99.90;;;;;;4317870;33;43710;-79
2022/06/06 05:14:04;;;;;;;;;;;16.80;99.90;;;;;;4304962;33;43168;-79
2022/06/06 05:16:34;;;;;;;;;;;16.80;99.90;;;;;;4317627;33;42854;-77
2022/06/06 05:19:13;;;;;;;;;;;16.90;99.90;;;;;;4317231;33;43054;-76
2022/06/06 05:21:40;;;;;;;;;;;16.80;99.90;;;;;;4318277;33;21496;-80
2022/06/06 05:24:14;;;;;;;;;;;16.80;99.90;;;;;;4316509;33;42925;-78
2022/06/06 05:26:44;;;;;;;;;;;16.80;99.90;;;;;;4317173;33;43595;-78
2022/06/06 05:29:14;;;;;;;;;;;16.80;99.90;;;;;;4317425;33;42630;-79
2022/06/06 05:31:45;;;;;;;;;;;16.80;99.90;;;;;;4303971;33;44108;-79
2022/06/06 05:34:18;;;;;;;;;;;16.80;99.90;;;;;;4317124;33;43854;-79
2022/06/06 05:36:45;;;;;;;;;;;16.80;99.90;;;;;;4317550;33;43318;-79
2022/06/06 05:39:29;;;;;;;;;;;16.80;99.90;;;;;;4316965;33;44083;-78
2022/06/06 05:42:06;;;;;;;;;;;16.80;99.90;;;;;;4304154;33;43301;-80
2022/06/06 05:44:53;;;;;;;;;;;16.80;99.90;;;;;;4303874;33;43296;-79
2022/06/06 05:47:20;;;;;;;;;;;16.80;99.90;;;;;;4316980;33;43664;-80
2022/06/06 05:50:06;;;;;;;;;;;16.80;99.90;;;;;;4304374;33;42622;-79
2022/06/06 05:52:51;;;;;;;;;;;16.80;99.90;;;;;;4317565;33;44252;-80
2022/06/06 05:55:28;;;;;;;;;;;16.70;99.90;;;;;;4316999;33;42851;-80
2022/06/06 05:58:03;;;;;;;;;;;16.80;99.90;;;;;;4317305;33;43241;-79
2022/06/06 06:00:30;;;;;;;;;;;16.80;99.90;;;;;;4304048;33;45694;-78
2022/06/06 06:03:06;;;;;;;;;;;16.70;99.90;;;;;;4303624;33;43000;-79
2022/06/06 06:05:33;;;;;;;;;;;16.80;99.90;;;;;;4303937;33;44113;-77
2022/06/06 06:08:10;;;;;;;;;;;16.80;99.90;;;;;;4317020;33;43284;-78
2022/06/06 06:10:46;;;;;;;;;;;16.80;99.90;;;;;;4317029;33;42902;-80
2022/06/06 06:13:19;;;;;;;;;;;16.80;99.90;;;;;;4303677;33;43134;-79
2022/06/06 06:15:48;;;;;;;;;;;16.80;99.90;;;;;;4316496;33;44195;-78
2022/06/06 06:18:34;;;;;;;;;;;16.80;99.90;;;;;;4315541;33;43896;-79
2022/06/06 06:21:10;;;;;;;;;;;16.80;99.90;;;;;;4316861;33;43480;-78
2022/06/06 06:23:49;;;;;;;;;;;16.80;99.90;;;;;;4305247;33;20367;-80
2022/06/06 06:26:16;;;;;;;;;;;16.70;99.90;;;;;;4316866;33;43729;-80
2022/06/06 06:28:45;;;;;;;;;;;16.70;99.90;;;;;;4303541;33;43078;-77
2022/06/06 06:31:27;;;;;;;;;;;16.70;99.90;;;;;;4316370;33;42756;-79
2022/06/06 06:34:13;;;;;;;;;;;16.70;99.90;;;;;;4316865;33;44183;-78
2022/06/06 06:36:44;;;;;;;;;;;16.70;99.90;;;;;;4316700;33;45793;-77
2022/06/06 06:39:20;;;;;;;;;;;16.70;99.90;;;;;;4316426;33;43700;-79
2022/06/06 06:41:56;;;;;;;;;;;16.70;99.90;;;;;;4316505;33;44245;-77
2022/06/06 06:44:27;;;;;;;;;;;16.70;99.90;;;;;;4316673;33;45461;-80
2022/06/06 06:46:58;;;;;;;;;;;16.70;99.90;;;;;;4316725;33;43208;-77
2022/06/06 06:49:25;;;;;;;;;;;16.70;99.90;;;;;;4316068;33;45055;-79
2022/06/06 06:52:10;;;;;;;;;;;16.70;99.90;;;;;;4316105;33;43048;-80
2022/06/06 06:54:37;;;;;;;;;;;16.70;99.90;;;;;;4316430;33;44091;-77
2022/06/06 06:57:11;;;;;;;;;;;16.70;99.90;;;;;;4302390;33;43427;-77
2022/06/06 06:59:57;;;;;;;;;;;16.70;99.90;;;;;;4316458;33;46212;-79
2022/06/06 07:08:48;;;;;;;;;;;16.70;99.90;;;;;;4315870;33;42059;-77
2022/06/06 07:11:45;;;;;;;;;;;16.70;99.90;;;;;;4302733;33;43709;-81
2022/06/06 07:14:31;;;;;;;;;;;16.70;99.90;;;;;;4276267;33;44162;-80
2022/06/06 07:16:59;;;;;;;;;;;16.70;99.90;;;;;;4316325;33;43868;-77
2022/06/06 07:19:35;;;;;;;;;;;16.80;99.90;;;;;;4316200;33;43959;-77
2022/06/06 07:22:03;;;;;;;;;;;16.80;99.90;;;;;;4315941;33;42476;-78
2022/06/06 07:24:30;;;;;;;;;;;16.70;99.90;;;;;;4316144;33;43137;-77
2022/06/06 07:26:59;;;;;;;;;;;16.80;99.90;;;;;;4303427;33;19994;-81
2022/06/06 07:29:27;;;;;;;;;;;16.80;99.90;;;;;;4315583;33;44066;-76
2022/06/06 07:31:59;;;;;;;;;;;16.80;99.90;;;;;;4315577;33;43985;-77
2022/06/06 07:34:29;;;;;;;;;;;16.80;99.90;;;;;;4302847;33;45465;-78
2022/06/06 07:36:56;;;;;;;;;;;16.80;99.90;;;;;;4315943;33;42819;-76
2022/06/06 07:39:34;;;;;;;;;;;16.80;99.90;;;;;;4316158;33;43907;-78
2022/06/06 07:42:37;;;;;;;;;;;16.70;99.90;;;;;;4315975;33;44231;-76
2022/06/06 07:45:21;;;;;;;;;;;16.80;99.90;;;;;;4316051;33;20403;-79
2022/06/06 07:47:51;;;;;;;;;;;16.70;99.90;;;;;;4315403;33;42950;-78
2022/06/06 07:50:20;;;;;;;;;;;16.80;99.90;;;;;;4302363;33;44092;-80
2022/06/06 07:52:55;;;;;;;;;;;16.80;99.90;;;;;;4315498;33;42990;-81
2022/06/06 07:55:41;;;;;;;;;;;16.80;99.90;;;;;;4315519;33;44030;-80
2022/06/06 07:58:27;;;;;;;;;;;16.80;99.90;;;;;;4316221;33;43562;-79
2022/06/06 08:01:02;;;;;;;;;;;16.80;99.90;;;;;;4315982;33;43878;-80
2022/06/06 08:03:37;;;;;;;;;;;16.80;99.90;;;;;;4315608;33;43502;-79
2022/06/06 08:06:11;;;;;;;;;;;16.80;99.90;;;;;;4315780;33;43395;-81
2022/06/06 08:08:53;;;;;;;;;;;16.80;99.90;;;;;;4314673;33;44762;-82
2022/06/06 08:11:42;;;;;;;;;;;16.80;99.90;;;;;;4304965;33;42572;-81
2022/06/06 08:14:17;;;;;;;;;;;16.80;99.90;;;;;;4317810;33;44182;-79
2022/06/06 08:16:55;;;;;;;;;;;16.80;99.90;;;;;;4305251;33;42740;-81
2022/06/06 08:19:41;;;;;;;;;;;16.80;99.90;;;;;;4317430;33;43498;-80
2022/06/06 08:22:09;;;;;;;;;;;16.80;99.90;;;;;;4318499;33;43639;-81
2022/06/06 08:24:38;;;;;;;;;;;16.80;99.90;;;;;;4318489;33;44018;-79
2022/06/06 08:27:24;;;;;;;;;;;16.80;99.90;;;;;;4318395;33;44322;-81
2022/06/06 08:29:54;;;;;;;;;;;16.80;99.90;;;;;;4305309;33;43309;-80
2022/06/06 08:32:22;;;;;;;;;;;16.80;99.90;;;;;;4305168;33;43443;-81
2022/06/06 08:34:50;;;;;;;;;;;16.80;99.90;;;;;;4316808;33;42900;-81
2022/06/06 08:37:19;;;;;;;;;;;16.80;99.90;;;;;;4304924;33;43491;-81
2022/06/06 08:40:05;;;;;;;;;;;16.80;99.90;;;;;;4304795;33;43846;-80
2022/06/06 08:42:54;;;;;;;;;;;16.80;99.90;;;;;;4317974;33;43481;-80
2022/06/06 08:45:24;;;;;;;;;;;16.80;99.90;;;;;;4318175;33;43946;-81
2022/06/06 08:48:04;;;;;;;;;;;16.90;99.90;;;;;;4317795;33;43506;-80
2022/06/06 08:50:46;;;;;;;;;;;16.90;99.90;;;;;;4305180;33;43272;-80
2022/06/06 08:53:13;;;;;;;;;;;16.90;99.90;;;;;;4305184;33;43874;-80
2022/06/06 08:55:56;;;;;;;;;;;16.90;99.90;;;;;;4305067;33;45822;-81
2022/06/06 08:58:23;;;;;;;;;;;16.90;99.90;;;;;;4318994;33;20054;-80
2022/06/06 09:01:09;;;;;;;;;;;17.00;99.90;;;;;;4304608;33;44751;-81
2022/06/06 09:04:15;;;;;;;;;;;17.00;99.90;;;;;;4307065;33;46322;-81
2022/06/06 09:06:47;;;;;;;;;;;17.00;99.90;;;;;;4317840;33;44964;-79
2022/06/06 09:09:30;;;;;;;;;;;17.00;99.90;;;;;;4317347;33;43810;-80
2022/06/06 09:12:16;;;;;;;;;;;17.00;99.90;;;;;;4316916;33;43841;-80
2022/06/06 09:15:04;;;;;;;;;;;17.00;99.90;;;;;;4318043;33;44160;-81
2022/06/06 09:17:35;;;;;;;;;;;17.00;99.90;;;;;;4316474;33;42580;-80
2022/06/06 09:20:27;;;;;;;;;;;17.00;99.90;;;;;;4304703;33;43663;-80
2022/06/06 09:23:01;;;;;;;;;;;17.00;99.90;;;;;;4317804;33;44033;-79
2022/06/06 09:25:31;;;;;;;;;;;17.00;99.90;;;;;;4304199;33;42575;-80
2022/06/06 09:27:58;;;;;;;;;;;17.10;99.90;;;;;;4317034;33;44702;-79
2022/06/06 09:30:31;;;;;;;;;;;17.10;99.90;;;;;;4317295;33;43951;-81
2022/06/06 09:33:11;;;;;;;;;;;17.10;99.90;;;;;;4317106;33;43466;-80
2022/06/06 09:35:44;;;;;;;;;;;17.10;99.90;;;;;;4317594;33;44247;-80
2022/06/06 09:38:14;;;;;;;;;;;17.10;99.90;;;;;;4304257;33;44239;-81
2022/06/06 09:40:42;;;;;;;;;;;17.10;99.90;;;;;;4304352;33;45998;-81
2022/06/06 09:43:30;;;;;;;;;;;17.10;99.90;;;;;;4317121;33;44119;-81
2022/06/06 09:46:00;;;;;;;;;;;17.10;99.90;;;;;;4304385;33;43123;-81
2022/06/06 09:48:27;;;;;;;;;;;17.10;99.90;;;;;;4316737;33;44283;-79
2022/06/06 09:51:06;;;;;;;;;;;17.20;99.90;;;;;;4316890;33;44266;-79
2022/06/06 09:59:01;;;;;;;;;;;17.20;99.90;;;;;;4317696;33;43124;-80
2022/06/06 09:59:57;;;;;;;;;;;17.20;99.90;;;;;;4317121;33;42544;-80
2022/06/06 10:02:24;;;;;;;;;;;17.20;99.90;;;;;;4276779;33;43347;-80
2022/06/06 10:05:24;;;;;;;;;;;17.30;99.90;;;;;;4304191;33;43882;-84
2022/06/06 10:08:10;;;;;;;;;;;17.30;99.90;;;;;;4315779;33;44271;-81
2022/06/06 10:10:44;;;;;;;;;;;17.30;99.90;;;;;;4317368;33;43386;-80
2022/06/06 10:13:27;;;;;;;;;;;17.30;99.90;;;;;;4303866;33;42489;-79
2022/06/06 10:16:09;;;;;;;;;;;17.30;99.90;;;;;;4303452;33;44186;-81
2022/06/06 10:18:51;;;;;;;;;;;17.40;99.90;;;;;;4316743;33;44308;-80
2022/06/06 10:21:22;;;;;;;;;;;17.40;99.90;;;;;;4303877;33;45113;-80
2022/06/06 10:24:08;;;;;;;;;;;17.40;99.90;;;;;;4303446;33;42833;-81
2022/06/06 10:26:53;;;;;;;;;;;17.40;99.90;;;;;;4316995;33;43127;-80
2022/06/06 10:32:43;;;;;;;;;;;17.40;99.90;;;;;;4316766;33;20100;-77
2022/06/06 10:35:16;;;;;;;;;;;17.40;99.90;;;;;;4315197;33;43070;-80
2022/06/06 10:37:46;;;;;;;;;;;17.50;99.90;;;;;;4316785;33;42255;-78
2022/06/06 10:40:32;;;;;;;;;;;17.50;99.90;;;;;;4302940;33;44609;-81
2022/06/06 10:43:20;;;;;;;;;;;17.50;99.90;;;;;;4315498;33;42673;-81
2022/06/06 10:45:48;;;;;;;;;;;17.50;99.90;;;;;;4316863;33;43721;-77
2022/06/06 10:48:22;;;;;;;;;;;17.50;99.90;;;;;;4303438;33;44964;-80
2022/06/06 10:54:14;;;;;;;;;;;17.50;99.90;;;;;;4316208;33;43267;-78
2022/06/06 10:56:52;;;;;;;;;;;17.50;99.90;;;;;;4316379;33;43928;-79
2022/06/06 10:59:39;;;;;;;;;;;17.50;99.90;;;;;;4316338;33;43600;-78
2022/06/06 11:02:06;;;;;;;;;;;17.50;99.70;;;;;;4316177;33;43483;-80
2022/06/06 11:04:45;;;;;;;;;;;17.50;99.90;;;;;;4316310;33;43433;-78
2022/06/06 11:07:35;;;;;;;;;;;17.50;99.80;;;;;;4316081;33;45937;-81
2022/06/06 11:10:05;;;;;;;;;;;17.50;99.40;;;;;;4298648;33;42926;-79
2022/06/06 11:12:37;;;;;;;;;;;17.50;99.40;;;;;;4316052;33;43771;-77
2022/06/06 11:15:04;;;;;;;;;;;17.50;99.30;;;;;;4315992;33;42089;-80
2022/06/06 11:17:34;;;;;;;;;;;17.50;99.40;;;;;;4314963;33;43242;-79
2022/06/06 11:20:05;;;;;;;;;;;17.50;99.40;;;;;;4315637;33;43213;-79
2022/06/06 11:22:32;;;;;;;;;;;17.50;99.50;;;;;;4315689;33;43204;-79
2022/06/06 11:25:05;;;;;;;;;;;17.50;99.50;;;;;;4303060;33;43152;-79
2022/06/06 11:27:35;;;;;;;;;;;17.50;99.40;;;;;;4316103;33;43998;-79
2022/06/06 11:30:09;;;;;;;;;;;17.50;99.40;;;;;;4315809;33;44306;-78
2022/06/06 11:32:45;;;;;;;;;;;17.50;99.20;;;;;;4315952;33;44257;-80
2022/06/06 11:35:14;;;;;;;;;;;17.50;99.60;;;;;;4302926;33;44139;-80
2022/06/06 11:37:55;;;;;;;;;;;17.50;99.30;;;;;;4315938;33;43935;-81
2022/06/06 11:40:28;;;;;;;;;;;17.50;99.80;;;;;;4303042;33;43631;-81
2022/06/06 11:43:04;;;;;;;;;;;17.50;99.50;;;;;;4302308;33;44176;-80
2022/06/06 11:45:43;;;;;;;;;;;17.60;99.40;;;;;;4303001;33;43578;-80
2022/06/06 11:48:24;;;;;;;;;;;17.60;99.80;;;;;;4315968;33;43104;-81
2022/06/06 11:51:00;;;;;;;;;;;17.70;99.90;;;;;;4315801;33;43494;-79
2022/06/06 11:53:46;;;;;;;;;;;17.70;99.80;;;;;;4315933;33;43486;-81
2022/06/06 11:56:33;;;;;;;;;;;17.70;99.60;;;;;;4315086;33;43958;-82
2022/06/06 11:59:10;;;;;;;;;;;17.70;99.60;;;;;;4315471;33;44957;-80
2022/06/06 12:01:49;;;;;;;;;;;17.80;98.80;;;;;;4302331;33;43384;-81
2022/06/06 12:04:34;;;;;;;;;;;17.80;98.70;;;;;;4316417;33;19998;-78
2022/06/06 12:07:10;;;;;;;;;;;17.80;98.10;;;;;;4314528;33;43753;-80
2022/06/06 12:09:37;;;;;;;;;;;17.80;98.40;;;;;;4315153;33;42914;-80
2022/06/06 12:12:22;;;;;;;;;;;17.80;98.30;;;;;;4315651;33;43746;-80
2022/06/06 12:14:56;;;;;;;;;;;17.90;97.90;;;;;;4314277;33;44254;-80
2022/06/06 12:17:23;;;;;;;;;;;17.80;98.20;;;;;;4302577;33;45221;-81
2022/06/06 12:20:25;;;;;;;;;;;17.90;98.60;;;;;;4302602;33;42615;-79
2022/06/06 12:22:53;;;;;;;;;;;17.90;98.80;;;;;;4269772;33;44984;-81
2022/06/06 12:25:46;;;;;;;;;;;17.90;98.30;;;;;;4306315;33;42978;-81
2022/06/06 12:28:25;;;;;;;;;;;18.00;98.30;;;;;;4302091;33;42895;-79
2022/06/06 12:31:05;;;;;;;;;;;18.00;98.30;;;;;;4302428;33;45801;-79
2022/06/06 12:34:01;;;;;;;;;;;18.00;97.70;;;;;;4315715;33;44052;-82
2022/06/06 12:36:33;;;;;;;;;;;18.00;98.20;;;;;;4305968;33;43234;-80
2022/06/06 12:39:13;;;;;;;;;;;18.00;97.80;;;;;;4315690;33;43857;-80
2022/06/06 12:41:52;;;;;;;;;;;18.00;98.00;;;;;;4303030;33;43838;-79
2022/06/06 12:44:26;;;;;;;;;;;18.00;97.70;;;;;;4302414;33;44014;-80
2022/06/06 12:46:53;;;;;;;;;;;18.00;97.10;;;;;;4302139;33;42643;-81
2022/06/06 12:49:36;;;;;;;;;;;18.00;97.50;;;;;;4301890;33;43888;-79
2022/06/06 12:52:09;;;;;;;;;;;18.10;97.40;;;;;;4315409;33;45626;-81
2022/06/06 12:58:01;;;;;;;;;;;18.10;97.00;;;;;;4309339;33;43133;-81
2022/06/06 13:03:24;;;;;;;;;;;18.10;96.70;;;;;;4317785;33;44680;-81
2022/06/06 13:06:14;;;;;;;;;;;18.10;97.50;;;;;;4317561;33;42582;-78
2022/06/06 13:08:48;;;;;;;;;;;18.10;97.50;;;;;;4290875;33;43891;-80
2022/06/06 13:11:24;;;;;;;;;;;18.20;96.60;;;;;;4304685;33;45335;-80
2022/06/06 13:14:05;;;;;;;;;;;18.20;97.20;;;;;;4317903;33;44250;-81
2022/06/06 13:16:44;;;;;;;;;;;18.20;97.00;;;;;;4304458;33;42847;-79
2022/06/06 13:19:20;;;;;;;;;;;18.20;97.10;;;;;;4317725;33;43645;-79
2022/06/06 13:22:13;;;;;;;;;;;18.20;97.30;;;;;;4317867;33;42265;-82
2022/06/06 13:24:46;;;;;;;;;;;18.20;97.20;;;;;;4317811;33;45757;-81
2022/06/06 13:27:25;;;;;;;;;;;18.20;97.10;;;;;;4317290;33;44649;-81
2022/06/06 13:29:52;;;;;;;;;;;18.20;97.50;;;;;;4304055;33;42752;-81
2022/06/06 13:32:46;;;;;;;;;;;18.20;97.10;;;;;;4317966;33;44204;-77
2022/06/06 13:35:23;;;;;;;;;;;18.20;97.20;;;;;;4316679;33;42969;-79
2022/06/06 13:38:10;;;;;;;;;;;18.20;97.50;;;;;;4317609;33;44833;-80
2022/06/06 13:40:45;;;;;;;;;;;18.10;97.50;;;;;;4316570;33;43168;-82
2022/06/06 13:43:12;;;;;;;;;;;18.20;97.30;;;;;;4317547;33;44344;-82
2022/06/06 13:45:49;;;;;;;;;;;18.10;97.30;;;;;;4317251;33;45052;-78
2022/06/06 13:48:36;;;;;;;;;;;18.10;97.40;;;;;;4317348;33;44129;-79
2022/06/06 13:51:15;;;;;;;;;;;18.20;97.60;;;;;;4317015;33;43802;-82
2022/06/06 13:53:51;;;;;;;;;;;18.20;97.50;;;;;;4304484;33;43442;-80
2022/06/06 13:56:36;;;;;;;;;;;18.20;97.40;;;;;;4317469;33;44670;-80
2022/06/06 13:59:22;;;;;;;;;;;18.20;97.40;;;;;;4316289;33;43238;-82
2022/06/06 14:01:49;;;;;;;;;;;18.30;97.80;;;;;;4316591;33;43848;-80
2022/06/06 14:04:35;;;;;;;;;;;18.30;97.60;;;;;;4304289;33;44307;-84
2022/06/06 14:07:20;;;;;;;;;;;18.30;97.50;;;;;;4316001;33;42997;-81
2022/06/06 14:09:48;;;;;;;;;;;18.30;97.00;;;;;;4303940;33;43470;-82
2022/06/06 14:12:26;;;;;;;;;;;18.30;96.80;;;;;;4315700;33;43543;-82
2022/06/06 14:14:59;;;;;;;;;;;18.30;97.20;;;;;;4317196;33;43107;-81
2022/06/06 14:17:28;;;;;;;;;;;18.40;96.70;;;;;;4317151;33;44069;-79
2022/06/06 14:20:17;;;;;;;;;;;18.40;96.70;;;;;;4303749;33;45304;-81
2022/06/06 14:22:45;;;;;;;;;;;18.40;97.00;;;;;;4316650;33;43785;-79
2022/06/06 14:25:12;;;;;;;;;;;18.40;97.00;;;;;;4316483;33;43812;-79
2022/06/06 14:27:40;;;;;;;;;;;18.40;97.20;;;;;;4303682;33;43181;-81
2022/06/06 14:30:16;;;;;;;;;;;18.40;97.40;;;;;;4316394;33;43319;-81
2022/06/06 14:32:55;;;;;;;;;;;18.50;97.40;;;;;;4303174;33;42532;-81
2022/06/06 14:35:28;;;;;;;;;;;18.50;97.10;;;;;;4304565;33;20014;-82
2022/06/06 14:38:15;;;;;;;;;;;18.50;97.30;;;;;;4304725;33;43254;-81
2022/06/06 14:40:46;;;;;;;;;;;18.40;96.90;;;;;;4315665;33;45745;-80
2022/06/06 14:43:13;;;;;;;;;;;18.50;97.20;;;;;;4303663;33;43491;-80
2022/06/06 14:45:41;;;;;;;;;;;18.50;96.50;;;;;;4316607;33;44430;-79
2022/06/06 14:48:29;;;;;;;;;;;18.50;96.80;;;;;;4315484;33;44211;-79
2022/06/06 14:50:58;;;;;;;;;;;18.50;96.80;;;;;;4303449;33;43465;-80
2022/06/06 14:53:27;;;;;;;;;;;18.50;96.80;;;;;;4303417;33;43983;-79
2022/06/06 14:56:01;;;;;;;;;;;18.50;97.00;;;;;;4316014;33;42589;-79
2022/06/06 14:58:29;;;;;;;;;;;18.60;96.70;;;;;;4303405;33;44224;-78
2022/06/06 15:01:17;;;;;;;;;;;18.60;96.90;;;;;;4316424;33;44959;-81
2022/06/06 15:03:46;;;;;;;;;;;18.60;96.90;;;;;;4316689;33;43829;-80
2022/06/06 15:06:34;;;;;;;;;;;18.60;96.90;;;;;;4302935;33;43783;-78
2022/06/06 15:09:22;;;;;;;;;;;18.60;97.00;;;;;;4315497;33;44172;-78
2022/06/06 15:11:49;;;;;;;;;;;18.70;97.10;;;;;;4316345;33;43239;-81
2022/06/06 15:14:16;;;;;;;;;;;18.60;96.90;;;;;;4302727;33;43804;-83
2022/06/06 15:16:44;;;;;;;;;;;18.60;96.80;;;;;;4315767;33;44131;-81
2022/06/06 15:19:31;;;;;;;;;;;18.60;96.70;;;;;;4315503;33;43317;-78
2022/06/06 15:22:04;;;;;;;;;;;18.70;96.80;;;;;;4297522;33;43029;-80
2022/06/06 15:24:38;;;;;;;;;;;18.70;96.70;;;;;;4315729;33;42466;-79
2022/06/06 15:27:23;;;;;;;;;;;18.70;96.50;;;;;;4303019;33;43413;-79
2022/06/06 15:29:56;;;;;;;;;;;18.70;96.90;;;;;;4316161;33;44798;-79
2022/06/06 15:32:28;;;;;;;;;;;18.70;96.90;;;;;;4302673;33;43788;-78
2022/06/06 15:34:58;;;;;;;;;;;18.70;97.00;;;;;;4316342;33;43109;-77